createdAt,value
2018-04-29T00:00:01.787Z,6.70
2018-04-29T00:02:31.637Z,6.80
2018-04-29T00:05:00.492Z,6.37
2018-04-29T00:07:29.331Z,7.03
2018-04-29T00:09:58.945Z,5.87
2018-04-29T00:12:28.531Z,6.00
2018-04-29T00:14:57.369Z,5.90
2018-04-29T00:17:26.200Z,5.40
2018-04-29T00:19:55.036Z,6.07
2018-04-29T00:22:23.857Z,5.07
2018-04-29T00:24:52.688Z,6.03
2018-04-29T00:27:22.280Z,5.93
2018-04-29T00:29:51.117Z,5.23
2018-04-29T00:32:19.951Z,6.13
2018-04-29T00:34:48.794Z,5.97
2018-04-29T00:37:17.625Z,5.43
2018-04-29T00:39:46.880Z,5.83
2018-04-29T00:42:15.722Z,5.13
2018-04-29T00:44:44.566Z,5.30
2018-04-29T00:47:13.415Z,6.50
2018-04-29T00:49:42.246Z,6.03
2018-04-29T00:52:11.096Z,5.57
2018-04-29T00:54:39.937Z,5.10
2018-04-29T00:57:08.809Z,5.40
2018-04-29T00:59:37.632Z,5.63
2018-04-29T01:02:06.465Z,5.43
2018-04-29T01:04:36.286Z,6.10
2018-04-29T01:07:05.134Z,5.47
2018-04-29T01:09:33.955Z,5.60
2018-04-29T01:12:02.802Z,5.57
2018-04-29T01:14:31.733Z,6.80
2018-04-29T01:17:00.599Z,6.43
2018-04-29T01:19:29.424Z,6.40
2018-04-29T01:21:58.257Z,6.67
2018-04-29T01:24:27.117Z,5.83
2018-04-29T01:26:56.721Z,5.70
2018-04-29T01:29:26.341Z,7.27
2018-04-29T01:31:55.945Z,6.00
2018-04-29T01:34:24.774Z,6.23
2018-04-29T01:36:53.610Z,6.80
2018-04-29T01:39:23.192Z,6.97
2018-04-29T01:41:52.033Z,6.57
2018-04-29T01:44:20.921Z,6.40
2018-04-29T01:46:49.790Z,6.50
2018-04-29T01:49:19.405Z,6.80
2018-04-29T01:51:49.000Z,6.20
2018-04-29T01:54:18.635Z,6.20
2018-04-29T01:56:47.473Z,6.20
2018-04-29T01:59:16.301Z,7.63
2018-04-29T02:01:45.915Z,7.10
2018-04-29T02:04:15.508Z,6.70
2018-04-29T02:06:45.114Z,7.10
2018-04-29T02:09:13.929Z,6.60
2018-04-29T02:11:42.779Z,7.80
2018-04-29T02:14:11.626Z,7.93
2018-04-29T02:16:40.463Z,7.13
2018-04-29T02:19:10.897Z,7.07
2018-04-29T02:21:40.506Z,6.80
2018-04-29T02:24:09.339Z,7.20
2018-04-29T02:26:38.166Z,7.20
2018-04-29T02:29:07.021Z,7.00
2018-04-29T02:31:35.895Z,7.40
2018-04-29T02:34:05.494Z,7.20
2018-04-29T02:36:34.361Z,6.50
2018-04-29T02:39:03.943Z,7.87
2018-04-29T02:41:32.800Z,7.30
2018-04-29T02:44:01.645Z,7.40
2018-04-29T02:46:31.250Z,7.70
2018-04-29T02:49:01.581Z,7.40
2018-04-29T02:51:31.195Z,7.77
2018-04-29T02:54:00.798Z,7.90
2018-04-29T02:56:30.399Z,6.97
2018-04-29T02:59:00.025Z,8.00
2018-04-29T03:01:28.875Z,8.40
2018-04-29T03:03:57.714Z,6.90
2018-04-29T03:06:26.583Z,8.30
2018-04-29T03:08:56.179Z,7.57
2018-04-29T03:11:25.793Z,7.80
2018-04-29T03:13:55.407Z,8.20
2018-04-29T03:16:25.830Z,7.67
2018-04-29T03:18:55.480Z,8.17
2018-04-29T03:21:24.317Z,9.50
2018-04-29T03:23:53.908Z,8.83
2018-04-29T03:26:22.767Z,9.30
2018-04-29T03:28:51.593Z,9.00
2018-04-29T03:31:20.432Z,8.70
2018-04-29T03:33:49.303Z,8.33
2018-04-29T03:36:18.145Z,8.83
2018-04-29T03:38:47.018Z,8.40
2018-04-29T03:41:15.884Z,8.47
2018-04-29T03:43:44.743Z,8.30
2018-04-29T03:46:14.361Z,9.40
2018-04-29T03:48:43.732Z,8.80
2018-04-29T03:51:12.664Z,8.87
2018-04-29T03:53:41.545Z,8.60
2018-04-29T03:56:10.602Z,8.10
2018-04-29T03:58:51.432Z,8.43
2018-04-29T04:01:32.016Z,9.53
2018-04-29T04:04:03.108Z,9.40
2018-04-29T04:06:31.952Z,9.90
2018-04-29T04:09:01.560Z,8.90
2018-04-29T04:11:31.169Z,8.80
2018-04-29T04:14:00.030Z,8.50
2018-04-29T04:16:28.861Z,8.63
2018-04-29T04:18:58.469Z,9.60
2018-04-29T04:21:28.069Z,9.23
2018-04-29T04:23:57.680Z,8.73
2018-04-29T04:26:27.298Z,8.90
2018-04-29T04:28:56.908Z,9.73
2018-04-29T04:31:26.504Z,8.43
2018-04-29T04:33:56.123Z,9.60
2018-04-29T04:36:24.949Z,9.63
2018-04-29T04:38:54.318Z,9.37
2018-04-29T04:41:23.910Z,8.17
2018-04-29T04:43:53.516Z,9.50
2018-04-29T04:46:23.117Z,9.70
2018-04-29T04:48:52.733Z,9.17
2018-04-29T04:51:22.357Z,9.57
2018-04-29T04:53:51.200Z,9.90
2018-04-29T04:56:20.053Z,9.40
2018-04-29T04:58:48.896Z,9.27
2018-04-29T05:01:17.765Z,8.80
2018-04-29T05:03:46.944Z,9.20
2018-04-29T05:06:17.451Z,9.93
2018-04-29T05:08:46.273Z,9.37
2018-04-29T05:11:15.120Z,8.97
2018-04-29T05:13:44.035Z,9.53
2018-04-29T05:16:12.828Z,11.20
2018-04-29T05:18:41.664Z,9.60
2018-04-29T05:21:10.520Z,8.90
2018-04-29T05:23:39.475Z,8.87
2018-04-29T05:26:08.301Z,9.47
2018-04-29T05:28:37.148Z,9.93
2018-04-29T05:31:06.011Z,9.40
2018-04-29T05:33:34.914Z,8.90
2018-04-29T05:36:03.733Z,7.93
2018-04-29T05:38:33.366Z,9.50
2018-04-29T05:41:02.700Z,8.50
2018-04-29T05:43:31.550Z,10.30
2018-04-29T05:46:00.401Z,9.63
2018-04-29T05:48:29.243Z,9.80
2018-04-29T05:50:58.069Z,12.00
2018-04-29T05:53:26.932Z,10.43
2018-04-29T05:55:55.784Z,10.17
2018-04-29T05:58:25.429Z,9.17
2018-04-29T06:00:54.255Z,7.60
2018-04-29T06:03:23.512Z,9.07
2018-04-29T06:05:53.132Z,8.30
2018-04-29T06:08:22.813Z,8.07
2018-04-29T06:10:52.509Z,8.23
2018-04-29T06:13:22.554Z,8.00
2018-04-29T06:15:51.377Z,7.50
2018-04-29T06:18:20.243Z,8.10
2018-04-29T06:20:49.061Z,7.43
2018-04-29T06:23:17.896Z,8.10
2018-04-29T06:25:47.500Z,8.13
2018-04-29T06:28:17.160Z,7.53
2018-04-29T06:30:45.999Z,8.30
2018-04-29T06:33:16.416Z,10.40
2018-04-29T06:35:46.043Z,9.50
2018-04-29T06:38:14.884Z,10.17
2018-04-29T06:40:43.738Z,9.63
2018-04-29T06:43:12.584Z,10.60
2018-04-29T06:45:41.434Z,8.73
2018-04-29T06:48:11.033Z,7.77
2018-04-29T06:50:39.922Z,8.33
2018-04-29T06:53:08.795Z,7.47
2018-04-29T06:55:37.666Z,7.80
2018-04-29T06:58:07.352Z,7.10
2018-04-29T07:00:36.212Z,7.20
2018-04-29T07:03:05.247Z,6.73
2018-04-29T07:05:34.856Z,7.30
2018-04-29T07:08:03.699Z,7.07
2018-04-29T07:10:32.525Z,6.40
2018-04-29T07:13:01.377Z,5.70
2018-04-29T07:15:30.230Z,6.23
2018-04-29T07:17:59.361Z,6.60
2018-04-29T07:20:28.221Z,6.27
2018-04-29T07:22:57.137Z,6.03
2018-04-29T07:25:25.961Z,5.80
2018-04-29T07:27:55.585Z,6.70
2018-04-29T07:30:24.436Z,7.30
2018-04-29T07:32:53.316Z,6.07
2018-04-29T07:35:22.152Z,6.80
2018-04-29T07:37:51.008Z,6.33
2018-04-29T07:40:19.846Z,6.97
2018-04-29T07:42:48.721Z,7.00
2018-04-29T07:45:17.571Z,7.40
2018-04-29T07:47:46.404Z,5.30
2018-04-29T07:50:15.265Z,7.10
2018-04-29T07:52:44.954Z,7.47
2018-04-29T07:55:14.469Z,6.73
2018-04-29T07:57:43.334Z,7.03
2018-04-29T08:00:12.153Z,6.83
2018-04-29T08:02:42.285Z,7.20
2018-04-29T08:05:13.399Z,7.70
2018-04-29T08:07:43.907Z,7.80
2018-04-29T08:10:13.547Z,8.00
2018-04-29T08:12:42.356Z,6.83
2018-04-29T08:15:11.216Z,16.80
2018-04-29T08:17:40.079Z,9.93
2018-04-29T08:20:09.693Z,8.93
2018-04-29T08:22:39.319Z,8.03
2018-04-29T08:25:08.904Z,10.03
2018-04-29T08:27:37.761Z,9.23
2018-04-29T08:30:06.627Z,8.70
2018-04-29T08:32:35.426Z,8.37
2018-04-29T08:35:04.295Z,8.90
2018-04-29T08:37:33.917Z,9.30
2018-04-29T08:40:02.794Z,8.53
2018-04-29T08:42:31.632Z,9.67
2018-04-29T08:45:01.257Z,10.00
2018-04-29T08:47:30.090Z,8.80
2018-04-29T08:49:58.981Z,9.13
2018-04-29T08:52:27.809Z,8.10
2018-04-29T08:54:56.652Z,8.10
2018-04-29T08:57:25.510Z,8.20
2018-04-29T08:59:55.127Z,9.10
2018-04-29T09:02:23.985Z,9.30
2018-04-29T09:04:53.604Z,8.30
2018-04-29T09:07:22.471Z,8.60
2018-04-29T09:09:51.313Z,8.70
2018-04-29T09:12:20.190Z,8.60
2018-04-29T09:14:49.036Z,7.50
2018-04-29T09:17:17.937Z,8.30
2018-04-29T09:19:46.801Z,10.17
2018-04-29T09:22:16.419Z,9.23
2018-04-29T09:24:45.261Z,8.10
2018-04-29T09:27:14.113Z,8.33
2018-04-29T09:29:42.945Z,8.60
2018-04-29T09:32:12.994Z,9.10
2018-04-29T09:34:41.842Z,7.77
2018-04-29T09:37:10.709Z,7.93
2018-04-29T09:39:39.544Z,7.63
2018-04-29T09:42:09.189Z,7.10
2018-04-29T09:44:38.119Z,6.57
2018-04-29T09:47:06.935Z,7.07
2018-04-29T09:49:35.982Z,7.13
2018-04-29T09:52:05.125Z,7.40
2018-04-29T09:54:34.895Z,7.20
2018-04-29T09:57:04.239Z,7.53
2018-04-29T09:59:33.613Z,7.67
2018-04-29T10:02:02.443Z,8.37
2018-04-29T10:04:32.054Z,7.90
2018-04-29T10:07:00.927Z,7.20
2018-04-29T10:09:30.532Z,8.20
2018-04-29T10:12:00.342Z,8.23
2018-04-29T10:14:29.246Z,9.00
2018-04-29T10:16:58.082Z,9.00
2018-04-29T10:19:26.952Z,9.00
2018-04-29T10:21:55.774Z,9.53
2018-04-29T10:24:25.449Z,8.67
2018-04-29T10:26:54.327Z,9.70
2018-04-29T10:29:23.204Z,9.00
2018-04-29T10:31:52.071Z,8.10
2018-04-29T10:34:20.942Z,8.43
2018-04-29T10:36:50.581Z,7.90
2018-04-29T10:39:19.520Z,8.13
2018-04-29T10:41:48.389Z,7.63
2018-04-29T10:44:17.730Z,8.10
2018-04-29T10:46:47.488Z,7.50
2018-04-29T10:49:16.682Z,12.03
2018-04-29T10:51:45.528Z,7.83
2018-04-29T10:54:15.138Z,7.00
2018-04-29T10:56:44.794Z,7.10
2018-04-29T10:59:13.605Z,7.00
2018-04-29T11:01:42.453Z,6.50
2018-04-29T11:04:11.359Z,6.40
2018-04-29T11:06:40.199Z,6.23
2018-04-29T11:09:09.049Z,5.77
2018-04-29T11:11:37.898Z,5.40
2018-04-29T11:14:06.742Z,5.10
2018-04-29T11:16:35.985Z,5.20
2018-04-29T11:19:04.927Z,5.20
2018-04-29T11:21:33.732Z,4.50
2018-04-29T11:24:03.008Z,4.53
2018-04-29T11:26:31.863Z,5.10
2018-04-29T11:29:01.039Z,4.70
2018-04-29T11:31:29.880Z,4.70
2018-04-29T11:33:58.770Z,4.73
2018-04-29T11:36:27.586Z,4.67
2018-04-29T11:38:57.214Z,5.77
2018-04-29T11:41:26.072Z,4.63
2018-04-29T11:43:55.707Z,4.90
2018-04-29T11:46:24.546Z,4.63
2018-04-29T11:48:54.186Z,5.30
2018-04-29T11:51:23.018Z,4.50
2018-04-29T11:53:51.879Z,5.30
2018-04-29T11:56:20.720Z,5.33
2018-04-29T11:58:50.336Z,4.70
2018-04-29T12:01:19.929Z,4.70
2018-04-29T12:03:48.790Z,4.43
2018-04-29T12:06:18.127Z,5.03
2018-04-29T12:08:46.994Z,4.60
2018-04-29T12:11:15.828Z,4.20
2018-04-29T12:13:45.469Z,5.07
2018-04-29T12:16:14.346Z,5.20
2018-04-29T12:18:43.951Z,4.83
2018-04-29T12:21:12.921Z,5.00
2018-04-29T12:23:42.543Z,5.27
2018-04-29T12:26:11.718Z,5.40
2018-04-29T12:28:41.328Z,4.53
2018-04-29T12:31:10.945Z,5.27
2018-04-29T12:33:40.650Z,5.70
2018-04-29T12:36:09.570Z,4.63
2018-04-29T12:38:38.398Z,4.70
2018-04-29T12:41:08.045Z,5.23
2018-04-29T12:43:37.654Z,4.70
2018-04-29T12:46:07.986Z,4.90
2018-04-29T12:48:36.817Z,5.37
2018-04-29T12:51:06.481Z,5.20
2018-04-29T12:53:35.309Z,6.20
2018-04-29T12:56:04.170Z,5.80
2018-04-29T12:58:33.013Z,5.20
2018-04-29T13:01:01.856Z,5.13
2018-04-29T13:03:31.518Z,4.90
2018-04-29T13:06:00.381Z,5.20
2018-04-29T13:08:29.204Z,5.10
2018-04-29T13:10:59.183Z,5.40
2018-04-29T13:13:28.031Z,4.93
2018-04-29T13:15:56.873Z,5.50
2018-04-29T13:18:25.710Z,5.87
2018-04-29T13:20:54.541Z,5.23
2018-04-29T13:23:24.164Z,4.50
2018-04-29T13:25:52.997Z,4.63
2018-04-29T13:28:21.853Z,4.90
2018-04-29T13:30:51.023Z,5.10
2018-04-29T13:33:19.869Z,6.00
2018-04-29T13:35:48.740Z,5.63
2018-04-29T13:38:17.642Z,6.00
2018-04-29T13:40:46.450Z,5.47
2018-04-29T13:43:16.061Z,5.10
2018-04-29T13:45:45.676Z,5.07
2018-04-29T13:48:15.297Z,5.70
2018-04-29T13:50:44.134Z,5.83
2018-04-29T13:53:12.968Z,5.63
2018-04-29T13:55:41.826Z,5.70
2018-04-29T13:58:11.672Z,5.70
2018-04-29T14:00:41.286Z,5.33
2018-04-29T14:03:10.143Z,4.83
2018-04-29T14:05:39.055Z,5.70
2018-04-29T14:08:09.468Z,5.30
2018-04-29T14:10:38.364Z,4.53
2018-04-29T14:13:07.165Z,4.30
2018-04-29T14:15:36.991Z,4.00
2018-04-29T14:18:05.839Z,4.37
2018-04-29T14:20:34.702Z,4.33
2018-04-29T14:23:03.614Z,5.10
2018-04-29T14:25:32.447Z,4.30
2018-04-29T14:28:02.059Z,4.50
2018-04-29T14:30:31.791Z,4.50
2018-04-29T14:33:00.628Z,4.03
2018-04-29T14:35:29.820Z,3.70
2018-04-29T14:37:59.475Z,3.33
2018-04-29T14:40:28.329Z,3.30
2018-04-29T14:42:57.195Z,3.80
2018-04-29T14:45:25.998Z,3.50
2018-04-29T14:47:55.713Z,3.93
2018-04-29T14:50:25.326Z,3.50
2018-04-29T14:52:54.943Z,6.63
2018-04-29T14:55:24.533Z,3.50
2018-04-29T14:57:54.141Z,3.70
2018-04-29T15:00:23.744Z,3.50
2018-04-29T15:02:53.385Z,3.80
2018-04-29T15:05:22.222Z,3.57
2018-04-29T15:07:51.164Z,3.00
2018-04-29T15:10:20.012Z,4.17
2018-04-29T15:12:49.641Z,3.40
2018-04-29T15:15:18.465Z,3.60
2018-04-29T15:17:48.547Z,3.73
2018-04-29T15:20:17.382Z,3.87
2018-04-29T15:22:46.234Z,3.23
2018-04-29T15:25:15.082Z,4.10
2018-04-29T15:27:44.686Z,4.20
2018-04-29T15:30:13.539Z,4.10
2018-04-29T15:32:42.379Z,3.73
2018-04-29T15:35:11.340Z,3.53
2018-04-29T15:37:40.190Z,3.57
2018-04-29T15:40:09.064Z,3.70
2018-04-29T15:42:37.902Z,3.63
2018-04-29T15:45:06.789Z,4.20
2018-04-29T15:47:35.637Z,4.00
2018-04-29T15:50:04.546Z,3.40
2018-04-29T15:52:33.387Z,4.60
2018-04-29T15:55:02.249Z,3.87
2018-04-29T15:57:31.074Z,4.50
2018-04-29T16:00:00.713Z,4.03
2018-04-29T16:02:29.536Z,4.10
2018-04-29T16:04:58.517Z,4.10
2018-04-29T16:07:27.331Z,4.30
2018-04-29T16:09:56.173Z,3.70
2018-04-29T16:12:25.013Z,4.13
2018-04-29T16:14:53.860Z,3.80
2018-04-29T16:17:22.725Z,4.43
2018-04-29T16:19:51.672Z,4.20
2018-04-29T16:22:22.090Z,4.57
2018-04-29T16:24:51.705Z,4.50
2018-04-29T16:27:20.545Z,4.40
2018-04-29T16:29:49.380Z,4.10
2018-04-29T16:32:18.250Z,4.30
2018-04-29T16:34:47.080Z,4.40
2018-04-29T16:37:15.935Z,4.00
2018-04-29T16:39:45.541Z,4.10
2018-04-29T16:42:15.154Z,4.10
2018-04-29T16:44:44.059Z,4.40
2018-04-29T16:47:12.925Z,4.43
2018-04-29T16:49:42.517Z,4.63
2018-04-29T16:52:11.360Z,4.33
2018-04-29T16:54:40.264Z,3.83
2018-04-29T16:57:09.083Z,4.80
2018-04-29T16:59:37.918Z,5.00
2018-04-29T17:02:06.767Z,4.90
2018-04-29T17:04:36.542Z,4.40
2018-04-29T17:07:05.429Z,3.90
2018-04-29T17:09:34.395Z,4.33
2018-04-29T17:12:03.144Z,4.90
2018-04-29T17:14:32.004Z,4.57
2018-04-29T17:17:04.150Z,4.60
2018-04-29T17:19:37.006Z,5.67
2018-04-29T17:22:08.929Z,4.97
2018-04-29T17:24:37.786Z,4.53
2018-04-29T17:27:07.453Z,4.27
2018-04-29T17:29:36.335Z,5.30
2018-04-29T17:32:05.289Z,5.40
2018-04-29T17:34:34.202Z,4.67
2018-04-29T17:37:03.856Z,5.20
2018-04-29T17:39:32.670Z,5.20
2018-04-29T17:42:02.316Z,5.10
2018-04-29T17:44:31.174Z,5.30
2018-04-29T17:47:00.922Z,5.20
2018-04-29T17:49:29.802Z,5.20
2018-04-29T17:51:58.705Z,5.37
2018-04-29T17:54:27.597Z,4.87
2018-04-29T17:56:56.481Z,5.63
2018-04-29T17:59:26.751Z,5.13
2018-04-29T18:01:55.630Z,5.50
2018-04-29T18:04:25.311Z,5.00
2018-04-29T18:06:54.200Z,5.47
2018-04-29T18:09:23.054Z,4.73
2018-04-29T18:11:52.858Z,5.37
2018-04-29T18:14:21.696Z,6.50
2018-04-29T18:16:51.319Z,6.20
2018-04-29T18:19:21.639Z,5.30
2018-04-29T18:21:50.468Z,5.27
2018-04-29T18:24:19.322Z,6.03
2018-04-29T18:26:48.218Z,5.83
2018-04-29T18:29:18.559Z,5.80
2018-04-29T18:31:48.154Z,6.30
2018-04-29T18:34:17.768Z,10.47
2018-04-29T18:36:46.622Z,6.10
2018-04-29T18:39:15.474Z,6.30
2018-04-29T18:41:44.477Z,5.60
2018-04-29T18:44:13.331Z,6.07
2018-04-29T18:46:42.184Z,6.23
2018-04-29T18:49:12.691Z,6.07
2018-04-29T18:51:42.175Z,6.30
2018-04-29T18:54:11.750Z,6.60
2018-04-29T18:56:41.045Z,7.37
2018-04-29T18:59:10.136Z,6.20
2018-04-29T19:01:38.966Z,6.53
2018-04-29T19:04:08.146Z,7.10
2018-04-29T19:06:37.760Z,6.20
2018-04-29T19:09:08.347Z,6.03
2018-04-29T19:11:37.188Z,6.43
2018-04-29T19:14:06.146Z,6.10
2018-04-29T19:16:35.008Z,6.93
2018-04-29T19:19:04.297Z,6.33
2018-04-29T19:21:33.128Z,6.90
2018-04-29T19:24:02.119Z,7.43
2018-04-29T19:26:31.652Z,6.93
2018-04-29T19:29:00.517Z,7.13
2018-04-29T19:31:30.195Z,7.30
2018-04-29T19:33:59.058Z,7.57
2018-04-29T19:36:27.909Z,7.17
2018-04-29T19:38:57.554Z,19.23
2018-04-29T19:41:26.381Z,9.73
2018-04-29T19:43:55.239Z,7.17
2018-04-29T19:46:24.294Z,6.27
2018-04-29T19:48:53.938Z,6.30
2018-04-29T19:51:22.786Z,6.70
2018-04-29T19:53:52.455Z,6.23
2018-04-29T19:56:21.624Z,5.90
2018-04-29T19:58:51.425Z,6.07
2018-04-29T20:01:20.517Z,6.10
2018-04-29T20:03:49.370Z,6.10
2018-04-29T20:06:18.207Z,5.63
2018-04-29T20:08:47.064Z,6.50
2018-04-29T20:11:17.619Z,7.10
2018-04-29T20:13:46.471Z,6.70
2018-04-29T20:16:15.961Z,7.00
2018-04-29T20:18:44.789Z,7.27
2018-04-29T20:21:13.649Z,6.83
2018-04-29T20:23:43.843Z,6.53
2018-04-29T20:26:12.661Z,7.43
2018-04-29T20:28:41.492Z,7.57
2018-04-29T20:31:11.497Z,8.60
2018-04-29T20:33:40.337Z,8.80
2018-04-29T20:36:09.190Z,8.43
2018-04-29T20:38:38.029Z,7.83
2018-04-29T20:41:08.068Z,8.40
2018-04-29T20:43:37.581Z,7.80
2018-04-29T20:46:06.457Z,7.40
2018-04-29T20:48:36.076Z,7.57
2018-04-29T20:51:05.676Z,7.13
2018-04-29T20:53:34.509Z,7.37
2018-04-29T20:56:04.519Z,8.90
2018-04-29T20:58:33.349Z,8.17
2018-04-29T21:01:02.220Z,8.10
2018-04-29T21:03:31.343Z,8.33
2018-04-29T21:06:01.821Z,8.67
2018-04-29T21:08:31.192Z,7.10
2018-04-29T21:11:00.797Z,8.37
2018-04-29T21:13:30.199Z,8.43
2018-04-29T21:15:59.025Z,7.60
2018-04-29T21:18:28.658Z,7.97
2018-04-29T21:20:57.514Z,8.40
2018-04-29T21:23:26.380Z,8.90
2018-04-29T21:25:55.231Z,8.23
2018-04-29T21:28:24.129Z,8.87
2018-04-29T21:30:52.995Z,8.07
2018-04-29T21:33:22.453Z,8.17
2018-04-29T21:35:51.298Z,9.00
2018-04-29T21:38:20.552Z,8.20
2018-04-29T21:40:51.098Z,8.23
2018-04-29T21:43:20.711Z,8.23
2018-04-29T21:45:50.311Z,8.57
2018-04-29T21:48:19.914Z,9.23
2018-04-29T21:50:49.528Z,8.97
2018-04-29T21:53:19.139Z,9.00
2018-04-29T21:55:48.761Z,8.43
2018-04-29T21:58:17.613Z,9.43
2018-04-29T22:00:47.219Z,8.60
2018-04-29T22:03:16.744Z,9.13
2018-04-29T22:05:46.343Z,9.40
2018-04-29T22:08:15.978Z,8.90
2018-04-29T22:10:44.855Z,9.07
2018-04-29T22:13:14.435Z,8.30
2018-04-29T22:15:43.413Z,9.30
2018-04-29T22:18:12.264Z,8.67
2018-04-29T22:20:41.891Z,10.17
2018-04-29T22:23:10.722Z,8.50
2018-04-29T22:25:39.575Z,9.10
2018-04-29T22:28:08.590Z,9.30
2018-04-29T22:30:37.438Z,9.27
2018-04-29T22:33:06.629Z,8.97
2018-04-29T22:35:36.249Z,8.63
2018-04-29T22:38:05.761Z,10.20
2018-04-29T22:40:35.271Z,10.77
2018-04-29T22:43:06.209Z,8.77
2018-04-29T22:45:35.726Z,9.00
2018-04-29T22:48:04.569Z,8.67
2018-04-29T22:50:34.193Z,8.63
2018-04-29T22:53:03.041Z,9.00
2018-04-29T22:55:31.882Z,8.50
2018-04-29T22:58:00.833Z,8.53
2018-04-29T23:00:29.656Z,8.27
2018-04-29T23:02:58.506Z,8.80
2018-04-29T23:05:27.340Z,8.90
2018-04-29T23:07:56.173Z,8.50
2018-04-29T23:10:25.007Z,8.70
2018-04-29T23:12:53.860Z,9.33
2018-04-29T23:15:22.991Z,7.80
2018-04-29T23:17:51.784Z,8.13
2018-04-29T23:20:20.629Z,8.87
2018-04-29T23:22:50.259Z,8.30
2018-04-29T23:25:19.113Z,9.07
2018-04-29T23:27:48.084Z,9.47
2018-04-29T23:30:16.914Z,8.90
2018-04-29T23:32:46.125Z,8.97
2018-04-29T23:35:15.059Z,10.27
2018-04-29T23:37:44.672Z,9.30
2018-04-29T23:40:13.491Z,10.03
2018-04-29T23:42:43.166Z,9.90
2018-04-29T23:45:11.968Z,10.00
2018-04-29T23:47:41.669Z,11.90
2018-04-29T23:50:11.072Z,11.80
2018-04-29T23:52:39.920Z,11.90
2018-04-29T23:55:08.796Z,11.13
2018-04-29T23:57:37.639Z,11.50
